createdAt,value
2018-07-13T00:02:08.508Z,98.40
2018-07-13T00:04:37.491Z,98.43
2018-07-13T00:07:06.587Z,99.22
2018-07-13T00:09:35.686Z,98.98
2018-07-13T00:12:04.757Z,99.21
2018-07-13T00:14:33.784Z,99.96
2018-07-13T00:17:02.769Z,100.00
2018-07-13T00:19:31.720Z,100.00
2018-07-13T00:22:00.688Z,99.83
2018-07-13T00:24:29.704Z,100.00
2018-07-13T00:26:59.780Z,100.00
2018-07-13T00:29:28.796Z,100.00
2018-07-13T00:31:57.748Z,99.88
2018-07-13T00:34:26.720Z,99.48
2018-07-13T00:36:55.682Z,100.00
2018-07-13T00:39:24.706Z,99.37
2018-07-13T00:41:53.733Z,99.62
2018-07-13T00:44:22.820Z,99.60
2018-07-13T00:46:51.905Z,100.00
2018-07-13T00:49:21.011Z,100.00
2018-07-13T00:51:50.058Z,100.00
2018-07-13T00:54:19.116Z,100.00
2018-07-13T00:56:48.161Z,100.00
2018-07-13T00:59:17.240Z,100.00
2018-07-13T01:01:46.273Z,100.00
2018-07-13T01:04:15.293Z,100.00
2018-07-13T01:06:44.317Z,100.00
2018-07-13T01:09:13.292Z,100.00
2018-07-13T01:11:42.301Z,100.00
2018-07-13T01:14:11.336Z,100.00
2018-07-13T01:16:40.308Z,100.00
2018-07-13T01:19:09.336Z,100.00
2018-07-13T01:21:38.296Z,100.00
2018-07-13T01:24:07.622Z,100.00
2018-07-13T01:26:36.649Z,100.00
2018-07-13T01:29:05.627Z,100.00
2018-07-13T01:31:34.664Z,100.00
2018-07-13T01:34:03.692Z,100.00
2018-07-13T01:36:32.711Z,100.00
2018-07-13T01:39:01.813Z,100.00
2018-07-13T01:41:30.896Z,100.00
2018-07-13T01:43:59.911Z,100.00
2018-07-13T01:46:28.974Z,100.00
2018-07-13T01:48:57.995Z,100.00
2018-07-13T01:51:26.960Z,100.00
2018-07-13T01:53:55.937Z,100.00
2018-07-13T01:56:25.013Z,100.00
2018-07-13T01:58:54.052Z,100.00
2018-07-13T02:01:23.062Z,100.00
2018-07-13T02:03:52.082Z,100.00
2018-07-13T02:06:21.185Z,100.00
2018-07-13T02:08:50.159Z,100.00
2018-07-13T02:11:19.130Z,100.00
2018-07-13T02:13:48.204Z,100.00
2018-07-13T02:16:17.350Z,100.00
2018-07-13T02:18:46.307Z,100.00
2018-07-13T02:21:15.258Z,100.00
2018-07-13T02:23:44.241Z,100.00
2018-07-13T02:26:13.280Z,100.00
2018-07-13T02:28:42.356Z,100.00
2018-07-13T02:31:11.369Z,100.00
2018-07-13T02:33:40.523Z,100.00
2018-07-13T02:36:09.521Z,100.00
2018-07-13T02:38:38.479Z,100.00
2018-07-13T02:41:07.573Z,100.00
2018-07-13T02:43:36.520Z,100.00
2018-07-13T02:46:05.557Z,100.00
2018-07-13T02:48:34.565Z,100.00
2018-07-13T02:51:03.528Z,100.00
2018-07-13T02:53:32.523Z,100.00
2018-07-13T02:56:01.591Z,100.00
2018-07-13T02:58:30.563Z,100.00
2018-07-13T03:00:59.569Z,100.00
2018-07-13T03:03:28.625Z,100.00
2018-07-13T03:05:57.581Z,100.00
2018-07-13T03:08:26.673Z,100.00
2018-07-13T03:10:55.628Z,100.00
2018-07-13T03:13:24.584Z,100.00
2018-07-13T03:15:53.664Z,100.00
2018-07-13T03:18:22.632Z,100.00
2018-07-13T03:20:51.666Z,100.00
2018-07-13T03:23:20.717Z,100.00
2018-07-13T03:25:49.814Z,100.00
2018-07-13T03:28:18.889Z,100.00
2018-07-13T03:30:47.901Z,100.00
2018-07-13T03:33:16.944Z,100.00
2018-07-13T03:35:45.907Z,100.00
2018-07-13T03:38:14.935Z,100.00
2018-07-13T03:40:43.932Z,99.40
2018-07-13T03:43:12.953Z,97.83
2018-07-13T03:45:41.916Z,96.30
2018-07-13T03:48:10.913Z,95.48
2018-07-13T03:50:39.953Z,94.49
2018-07-13T03:53:08.961Z,94.95
2018-07-13T03:55:37.929Z,95.10
2018-07-13T03:58:06.883Z,92.67
2018-07-13T04:00:36.069Z,91.70
2018-07-13T04:03:05.019Z,91.53
2018-07-13T04:05:34.889Z,91.30
2018-07-13T04:08:04.220Z,86.79
2018-07-13T04:10:33.303Z,84.86
2018-07-13T04:13:02.354Z,81.23
2018-07-13T04:15:31.324Z,75.37
2018-07-13T04:18:00.343Z,67.66
2018-07-13T04:20:29.488Z,61.51
2018-07-13T04:22:58.516Z,56.10
2018-07-13T04:25:27.540Z,52.40
2018-07-13T04:27:56.535Z,49.37
2018-07-13T04:30:25.528Z,46.82
2018-07-13T04:32:54.459Z,46.82
2018-07-13T04:35:23.458Z,42.22
2018-07-13T04:37:52.459Z,42.03
2018-07-13T04:40:21.459Z,40.50
2018-07-13T04:42:50.493Z,39.26
2018-07-13T04:45:19.574Z,39.07
2018-07-13T04:47:48.549Z,40.06
2018-07-13T04:50:17.599Z,40.03
2018-07-13T04:52:46.664Z,39.91
2018-07-13T04:55:15.652Z,39.43
2018-07-13T04:57:44.616Z,37.80
2018-07-13T05:00:13.622Z,38.09
2018-07-13T05:02:42.591Z,37.32
2018-07-13T05:05:11.664Z,36.96
2018-07-13T05:07:40.656Z,36.39
2018-07-13T05:10:09.921Z,36.67
2018-07-13T05:12:38.946Z,37.80
2018-07-13T05:15:08.808Z,38.01
2018-07-13T05:17:37.852Z,39.19
2018-07-13T05:20:06.853Z,39.23
2018-07-13T05:22:36.607Z,38.16
2018-07-13T05:25:06.341Z,37.15
2018-07-13T05:27:35.339Z,36.98
2018-07-13T05:30:04.725Z,36.10
2018-07-13T05:32:33.820Z,35.24
2018-07-13T05:35:02.812Z,34.86
2018-07-13T05:37:32.165Z,35.38
2018-07-13T05:40:02.509Z,35.18
2018-07-13T05:42:31.533Z,34.06
2018-07-13T05:45:00.525Z,33.92
2018-07-13T05:47:29.536Z,33.32
2018-07-13T05:49:58.516Z,32.93
2018-07-13T05:52:27.517Z,32.81
2018-07-13T05:54:56.753Z,31.94
2018-07-13T05:57:25.803Z,31.91
2018-07-13T05:59:54.850Z,31.85
2018-07-13T06:02:23.907Z,31.56
2018-07-13T06:04:52.914Z,31.84
2018-07-13T06:07:21.951Z,31.17
2018-07-13T06:09:50.985Z,30.31
2018-07-13T06:12:20.008Z,31.20
2018-07-13T06:14:49.009Z,31.69
2018-07-13T06:17:18.021Z,32.97
2018-07-13T06:19:47.055Z,34.70
2018-07-13T06:22:16.068Z,35.18
2018-07-13T06:24:45.102Z,35.27
2018-07-13T06:27:14.064Z,34.42
2018-07-13T06:29:43.043Z,32.70
2018-07-13T06:32:12.068Z,32.05
2018-07-13T06:34:41.040Z,33.35
2018-07-13T06:37:10.087Z,33.98
2018-07-13T06:39:39.092Z,34.42
2018-07-13T06:42:08.194Z,35.77
2018-07-13T06:44:37.210Z,36.16
2018-07-13T06:47:06.327Z,39.86
2018-07-13T06:49:35.292Z,40.77
2018-07-13T06:52:04.243Z,40.67
2018-07-13T06:54:33.244Z,39.93
2018-07-13T06:57:02.205Z,39.39
2018-07-13T06:59:31.187Z,37.44
2018-07-13T07:02:00.160Z,37.86
2018-07-13T07:04:37.837Z,39.89
2018-07-13T07:07:18.226Z,42.11
2018-07-13T07:09:50.900Z,43.94
2018-07-13T07:12:29.596Z,46.64
2018-07-13T07:14:58.609Z,45.73
2018-07-13T07:17:27.572Z,46.51
2018-07-13T07:19:56.539Z,50.08
2018-07-13T07:22:25.510Z,47.22
2018-07-13T07:24:54.468Z,47.52
2018-07-13T07:27:23.440Z,45.25
2018-07-13T07:29:52.392Z,45.21
2018-07-13T07:32:21.392Z,44.29
2018-07-13T07:34:50.359Z,43.09
2018-07-13T07:37:19.305Z,43.99
2018-07-13T07:39:48.297Z,41.10
2018-07-13T07:42:17.257Z,41.24
2018-07-13T07:44:46.336Z,40.41
2018-07-13T07:47:15.435Z,40.44
2018-07-13T07:49:44.475Z,40.72
2018-07-13T07:52:13.440Z,40.22
2018-07-13T07:54:42.776Z,38.91
2018-07-13T07:57:12.293Z,40.07
2018-07-13T07:59:41.270Z,42.46
2018-07-13T08:02:10.241Z,42.57
2018-07-13T08:04:39.211Z,43.69
2018-07-13T08:07:08.507Z,42.81
2018-07-13T08:09:37.812Z,42.58
2018-07-13T08:12:06.828Z,43.52
2018-07-13T08:14:35.914Z,43.75
2018-07-13T08:17:04.796Z,42.91
2018-07-13T08:19:33.778Z,44.03
2018-07-13T08:22:08.340Z,45.92
2018-07-13T08:24:37.368Z,46.03
2018-07-13T08:27:07.402Z,45.36
2018-07-13T08:29:40.572Z,45.74
2018-07-13T08:32:09.581Z,46.55
2018-07-13T08:34:38.624Z,48.92
2018-07-13T08:37:08.354Z,47.53
2018-07-13T08:39:37.401Z,45.53
2018-07-13T08:42:06.429Z,46.13
2018-07-13T08:44:35.494Z,48.11
2018-07-13T08:47:04.540Z,49.30
2018-07-13T08:49:34.349Z,46.59
2018-07-13T08:52:03.388Z,48.85
2018-07-13T08:54:33.412Z,46.84
2018-07-13T08:57:02.479Z,48.51
2018-07-13T08:59:31.514Z,48.35
2018-07-13T09:02:00.616Z,47.72
2018-07-13T09:04:29.812Z,47.83
2018-07-13T09:06:58.886Z,47.32
2018-07-13T09:09:27.944Z,48.65
2018-07-13T09:11:57.724Z,49.66
2018-07-13T09:14:26.779Z,46.80
2018-07-13T09:16:56.257Z,47.91
2018-07-13T09:19:25.269Z,47.39
2018-07-13T09:21:54.245Z,48.32
2018-07-13T09:24:23.271Z,48.31
2018-07-13T09:26:52.231Z,47.46
2018-07-13T09:29:21.188Z,45.44
2018-07-13T09:31:50.162Z,44.16
2018-07-13T09:34:19.125Z,45.89
2018-07-13T09:36:48.093Z,46.06
2018-07-13T09:39:17.061Z,46.32
2018-07-13T09:41:46.098Z,44.27
2018-07-13T09:44:15.058Z,43.81
2018-07-13T09:46:44.025Z,43.52
2018-07-13T09:49:13.013Z,43.27
2018-07-13T09:51:41.986Z,43.21
2018-07-13T09:54:11.104Z,44.51
2018-07-13T09:56:39.994Z,42.98
2018-07-13T09:59:09.001Z,42.95
2018-07-13T10:01:37.987Z,43.75
2018-07-13T10:04:06.985Z,41.87
2018-07-13T10:06:35.964Z,40.32
2018-07-13T10:09:05.988Z,41.47
2018-07-13T10:11:34.966Z,40.04
2018-07-13T10:14:03.968Z,38.81
2018-07-13T10:16:32.960Z,38.97
2018-07-13T10:19:01.986Z,39.27
2018-07-13T10:21:31.888Z,39.53
2018-07-13T10:24:00.860Z,40.54
2018-07-13T10:26:35.479Z,39.34
2018-07-13T10:29:07.119Z,37.41
2018-07-13T10:31:36.361Z,38.88
2018-07-13T10:34:07.426Z,37.61
2018-07-13T10:36:40.366Z,38.54
2018-07-13T10:39:10.446Z,38.30
2018-07-13T10:41:39.617Z,39.40
2018-07-13T10:44:08.591Z,38.95
2018-07-13T10:46:37.576Z,38.28
2018-07-13T10:49:06.545Z,38.04
2018-07-13T10:51:35.589Z,39.55
2018-07-13T10:54:04.557Z,37.74
2018-07-13T10:56:33.553Z,39.80
2018-07-13T10:59:02.567Z,36.73
2018-07-13T11:01:31.541Z,39.71
2018-07-13T11:04:00.528Z,37.61
2018-07-13T11:06:29.517Z,35.83
2018-07-13T11:08:58.473Z,33.47
2018-07-13T11:11:27.470Z,35.83
2018-07-13T11:13:56.575Z,31.82
2018-07-13T11:16:25.513Z,33.00
2018-07-13T11:18:54.462Z,31.94
2018-07-13T11:21:23.446Z,32.89
2018-07-13T11:23:52.430Z,34.27
2018-07-13T11:26:21.429Z,33.88
2018-07-13T11:28:50.428Z,34.19
2018-07-13T11:31:19.392Z,34.44
2018-07-13T11:33:48.456Z,34.24
2018-07-13T11:36:17.492Z,34.23
2018-07-13T11:38:46.548Z,36.59
2018-07-13T11:41:15.601Z,37.63
2018-07-13T11:43:44.566Z,34.67
2018-07-13T11:46:13.661Z,34.03
2018-07-13T11:48:42.685Z,35.26
2018-07-13T11:51:12.122Z,34.26
2018-07-13T11:53:41.329Z,35.03
2018-07-13T11:56:10.287Z,36.25
2018-07-13T11:58:39.309Z,34.72
2018-07-13T12:01:08.528Z,34.16
2018-07-13T12:03:37.555Z,33.65
2018-07-13T12:06:06.588Z,33.52
2018-07-13T12:08:35.547Z,35.80
2018-07-13T12:11:04.578Z,33.56
2018-07-13T12:13:33.523Z,35.57
2018-07-13T12:16:02.593Z,33.89
2018-07-13T12:18:31.623Z,33.16
2018-07-13T12:21:00.651Z,35.42
2018-07-13T12:23:29.633Z,36.45
2018-07-13T12:25:58.591Z,36.52
2018-07-13T12:28:27.625Z,36.66
2018-07-13T12:30:56.570Z,37.59
2018-07-13T12:33:25.612Z,38.50
2018-07-13T12:35:54.568Z,39.43
2018-07-13T12:38:23.641Z,38.18
2018-07-13T12:40:52.747Z,39.45
2018-07-13T12:43:21.769Z,40.09
2018-07-13T12:45:50.819Z,42.13
2018-07-13T12:48:19.823Z,38.26
2018-07-13T12:50:48.912Z,38.81
2018-07-13T12:53:17.876Z,37.00
2018-07-13T12:55:46.834Z,39.15
2018-07-13T12:58:15.794Z,38.97
2018-07-13T13:00:44.949Z,42.27
2018-07-13T13:03:13.992Z,40.45
2018-07-13T13:05:43.017Z,37.28
2018-07-13T13:08:11.997Z,36.41
2018-07-13T13:10:40.956Z,35.20
2018-07-13T13:13:09.991Z,35.83
2018-07-13T13:15:39.095Z,36.65
2018-07-13T13:18:08.117Z,38.21
2018-07-13T13:20:37.173Z,38.74
2018-07-13T13:23:06.197Z,40.88
2018-07-13T13:25:35.238Z,38.22
2018-07-13T13:28:04.199Z,34.98
2018-07-13T13:30:33.382Z,32.20
2018-07-13T13:33:02.565Z,32.60
2018-07-13T13:35:31.570Z,32.16
2018-07-13T13:38:00.518Z,31.76
2018-07-13T13:40:29.465Z,33.73
2018-07-13T13:42:58.609Z,34.76
2018-07-13T13:45:27.560Z,33.36
2018-07-13T13:47:56.653Z,34.00
2018-07-13T13:50:25.754Z,33.33
2018-07-13T13:52:54.709Z,32.98
2018-07-13T13:55:23.760Z,32.76
2018-07-13T13:57:52.777Z,33.98
2018-07-13T14:00:21.889Z,34.29
2018-07-13T14:02:50.871Z,35.40
2018-07-13T14:05:20.009Z,36.52
2018-07-13T14:07:48.940Z,36.87
2018-07-13T14:10:17.997Z,38.59
2018-07-13T14:12:47.102Z,37.79
2018-07-13T14:15:16.143Z,39.69
2018-07-13T14:17:45.286Z,39.53
2018-07-13T14:20:14.353Z,41.13
2018-07-13T14:22:43.485Z,42.41
2018-07-13T14:25:12.506Z,43.44
2018-07-13T14:27:41.475Z,43.35
2018-07-13T14:30:10.516Z,43.34
2018-07-13T14:32:39.479Z,43.35
2018-07-13T14:35:08.570Z,43.16
2018-07-13T14:37:37.570Z,43.46
2018-07-13T14:40:06.622Z,43.43
2018-07-13T14:42:35.565Z,44.25
2018-07-13T14:45:04.613Z,43.72
2018-07-13T14:47:33.589Z,45.20
2018-07-13T14:50:02.600Z,43.61
2018-07-13T14:52:31.646Z,43.06
2018-07-13T14:55:00.665Z,41.50
2018-07-13T14:57:29.750Z,41.38
2018-07-13T14:59:58.826Z,41.54
2018-07-13T15:02:27.889Z,42.36
2018-07-13T15:04:56.888Z,41.90
2018-07-13T15:07:25.910Z,41.14
2018-07-13T15:09:54.985Z,42.97
2018-07-13T15:12:23.938Z,43.39
2018-07-13T15:14:52.949Z,42.24
2018-07-13T15:17:22.043Z,42.30
2018-07-13T15:19:51.072Z,43.72
2018-07-13T15:22:20.057Z,43.45
2018-07-13T15:24:48.985Z,45.51
2018-07-13T15:27:18.057Z,43.88
2018-07-13T15:29:47.029Z,43.12
2018-07-13T15:32:16.057Z,44.03
2018-07-13T15:34:45.037Z,44.92
2018-07-13T15:37:14.114Z,44.57
2018-07-13T15:39:43.086Z,45.54
2018-07-13T15:42:12.089Z,46.72
2018-07-13T15:44:41.129Z,47.36
2018-07-13T15:47:10.089Z,47.52
2018-07-13T15:49:39.153Z,47.58
2018-07-13T15:52:08.204Z,49.85
2018-07-13T15:54:37.207Z,48.31
2018-07-13T15:57:06.191Z,48.39
2018-07-13T15:59:35.208Z,47.78
2018-07-13T16:02:04.217Z,47.99
2018-07-13T16:04:33.307Z,48.84
2018-07-13T16:07:02.733Z,48.88
2018-07-13T16:09:31.815Z,49.41
2018-07-13T16:12:01.009Z,51.36
2018-07-13T16:14:30.066Z,50.20
2018-07-13T16:16:59.029Z,50.90
2018-07-13T16:19:27.987Z,51.84
2018-07-13T16:21:57.011Z,51.57
2018-07-13T16:24:26.094Z,53.16
2018-07-13T16:26:55.085Z,51.50
2018-07-13T16:29:24.106Z,52.60
2018-07-13T16:31:53.308Z,52.27
2018-07-13T16:34:22.287Z,52.17
2018-07-13T16:36:51.441Z,52.66
2018-07-13T16:39:20.461Z,53.07
2018-07-13T16:41:49.536Z,55.20
2018-07-13T16:44:18.632Z,54.39
2018-07-13T16:46:47.591Z,54.72
2018-07-13T16:49:16.571Z,55.22
2018-07-13T16:51:45.737Z,55.69
2018-07-13T16:54:14.767Z,56.90
2018-07-13T16:56:44.881Z,56.57
2018-07-13T16:59:13.905Z,58.00
2018-07-13T17:01:42.853Z,57.91
2018-07-13T17:04:11.804Z,58.58
2018-07-13T17:06:40.840Z,58.53
2018-07-13T17:09:09.987Z,58.56
2018-07-13T17:11:39.121Z,59.03
2018-07-13T17:14:08.136Z,59.96
2018-07-13T17:16:37.240Z,60.59
2018-07-13T17:19:06.256Z,60.97
2018-07-13T17:21:35.245Z,61.12
2018-07-13T17:24:04.281Z,61.11
2018-07-13T17:26:33.246Z,60.92
2018-07-13T17:29:02.483Z,62.26
2018-07-13T17:31:31.546Z,60.90
2018-07-13T17:34:00.568Z,60.74
2018-07-13T17:36:29.577Z,61.89
2018-07-13T17:38:58.548Z,61.58
2018-07-13T17:41:27.629Z,61.51
2018-07-13T17:43:56.717Z,62.02
2018-07-13T17:46:25.868Z,63.43
2018-07-13T17:48:54.952Z,62.81
2018-07-13T17:51:24.061Z,62.28
2018-07-13T17:53:53.176Z,62.12
2018-07-13T17:56:22.205Z,62.53
2018-07-13T17:58:51.317Z,62.35
2018-07-13T18:01:20.495Z,62.84
2018-07-13T18:03:50.104Z,62.70
2018-07-13T18:06:19.113Z,62.31
2018-07-13T18:08:48.139Z,64.64
2018-07-13T18:11:17.168Z,64.42
2018-07-13T18:13:46.164Z,64.40
2018-07-13T18:16:15.204Z,63.80
2018-07-13T18:18:44.160Z,65.33
2018-07-13T18:21:13.253Z,64.34
2018-07-13T18:23:42.236Z,65.87
2018-07-13T18:26:11.325Z,66.39
2018-07-13T18:28:40.367Z,65.86
2018-07-13T18:31:09.465Z,66.84
2018-07-13T18:33:38.451Z,67.11
2018-07-13T18:36:07.493Z,67.44
2018-07-13T18:38:36.534Z,67.89
2018-07-13T18:41:05.717Z,66.67
2018-07-13T18:43:34.859Z,67.75
2018-07-13T18:46:04.265Z,67.12
2018-07-13T18:48:33.354Z,66.10
2018-07-13T18:51:02.571Z,66.12
2018-07-13T18:53:32.602Z,65.57
2018-07-13T18:56:02.476Z,66.68
2018-07-13T18:58:33.165Z,66.26
2018-07-13T19:01:02.541Z,67.15
2018-07-13T19:03:31.556Z,65.60
2018-07-13T19:06:00.556Z,67.73
2018-07-13T19:08:29.576Z,68.04
2018-07-13T19:10:58.677Z,67.51
2018-07-13T19:13:27.808Z,67.06
2018-07-13T19:15:56.901Z,67.54
2018-07-13T19:18:25.895Z,67.88
2018-07-13T19:20:54.990Z,67.51
2018-07-13T19:23:24.009Z,68.68
2018-07-13T19:25:53.113Z,67.63
2018-07-13T19:28:22.102Z,68.74
2018-07-13T19:30:51.168Z,67.70
2018-07-13T19:33:20.264Z,67.43
2018-07-13T19:35:49.347Z,67.75
2018-07-13T19:38:18.430Z,68.87
2018-07-13T19:40:47.417Z,69.43
2018-07-13T19:43:16.545Z,69.59
2018-07-13T19:45:45.557Z,69.29
2018-07-13T19:48:14.539Z,68.28
2018-07-13T19:50:43.511Z,68.75
2018-07-13T19:53:12.499Z,68.53
2018-07-13T19:55:41.649Z,69.00
2018-07-13T19:58:10.739Z,68.06
2018-07-13T20:00:39.877Z,69.16
2018-07-13T20:03:08.933Z,67.97
2018-07-13T20:05:37.998Z,68.28
2018-07-13T20:08:07.128Z,69.57
2018-07-13T20:10:36.094Z,68.21
2018-07-13T20:13:05.159Z,68.82
2018-07-13T20:15:34.252Z,67.48
2018-07-13T20:18:03.361Z,68.04
2018-07-13T20:20:32.322Z,67.81
2018-07-13T20:23:01.296Z,67.98
2018-07-13T20:25:30.263Z,67.92
2018-07-13T20:27:59.247Z,67.79
2018-07-13T20:30:28.286Z,67.25
2018-07-13T20:32:57.312Z,68.06
2018-07-13T20:35:26.439Z,67.91
2018-07-13T20:37:55.431Z,67.29
2018-07-13T20:40:24.449Z,67.67
2018-07-13T20:42:53.496Z,68.27
2018-07-13T20:45:22.488Z,66.94
2018-07-13T20:47:51.506Z,67.50
2018-07-13T20:50:20.484Z,67.65
2018-07-13T20:52:49.605Z,66.51
2018-07-13T20:55:18.646Z,66.58
2018-07-13T20:57:47.726Z,65.79
2018-07-13T21:00:16.858Z,66.48
2018-07-13T21:02:45.952Z,64.76
2018-07-13T21:05:14.932Z,65.15
2018-07-13T21:07:43.921Z,64.68
2018-07-13T21:10:13.070Z,62.40
2018-07-13T21:12:42.091Z,61.17
2018-07-13T21:15:11.133Z,60.43
2018-07-13T21:17:40.155Z,60.61
2018-07-13T21:20:09.289Z,59.44
2018-07-13T21:22:39.339Z,59.99
2018-07-13T21:25:08.299Z,60.46
2018-07-13T21:27:37.401Z,59.75
2018-07-13T21:30:06.449Z,59.41
2018-07-13T21:32:35.416Z,59.25
2018-07-13T21:35:04.462Z,61.08
2018-07-13T21:37:33.444Z,61.11
2018-07-13T21:40:02.502Z,60.16
2018-07-13T21:42:31.572Z,60.54
2018-07-13T21:45:00.698Z,61.01
2018-07-13T21:47:29.734Z,61.30
2018-07-13T21:49:58.768Z,62.35
2018-07-13T21:52:27.729Z,62.05
2018-07-13T21:54:56.776Z,62.00
2018-07-13T21:57:25.772Z,62.24
2018-07-13T21:59:54.785Z,62.88
2018-07-13T22:02:23.915Z,62.75
2018-07-13T22:04:52.975Z,62.71
2018-07-13T22:07:22.054Z,62.24
2018-07-13T22:09:51.044Z,61.56
2018-07-13T22:12:19.992Z,61.67
2018-07-13T22:14:49.029Z,62.11
2018-07-13T22:17:18.009Z,63.52
2018-07-13T22:19:47.033Z,64.80
2018-07-13T22:22:15.995Z,66.06
2018-07-13T22:24:44.981Z,72.15
2018-07-13T22:27:14.021Z,73.96
2018-07-13T22:29:43.006Z,74.84
2018-07-13T22:32:12.061Z,76.37
2018-07-13T22:34:41.085Z,76.52
2018-07-13T22:37:10.283Z,77.84
2018-07-13T22:39:39.333Z,77.55
2018-07-13T22:42:08.312Z,77.57
2018-07-13T22:44:37.308Z,76.35
2018-07-13T22:47:06.488Z,75.40
2018-07-13T22:49:35.537Z,72.73
2018-07-13T22:52:04.503Z,70.78
2018-07-13T22:54:33.480Z,68.93
2018-07-13T22:57:02.516Z,69.17
2018-07-13T22:59:31.500Z,65.87
2018-07-13T23:02:00.593Z,67.38
2018-07-13T23:04:29.570Z,66.71
2018-07-13T23:06:58.614Z,65.39
2018-07-13T23:09:27.589Z,68.23
2018-07-13T23:11:56.615Z,69.21
2018-07-13T23:14:25.658Z,71.58
2018-07-13T23:16:54.693Z,71.98
2018-07-13T23:19:23.724Z,72.94
2018-07-13T23:21:52.692Z,73.81
2018-07-13T23:24:36.360Z,74.49
2018-07-13T23:27:05.372Z,75.75
2018-07-13T23:29:34.445Z,75.92
2018-07-13T23:32:03.506Z,76.53
2018-07-13T23:34:32.464Z,77.14
2018-07-13T23:39:29.458Z,78.63
2018-07-13T23:41:58.504Z,77.17
2018-07-13T23:44:27.480Z,77.48
2018-07-13T23:46:56.498Z,78.45
2018-07-13T23:49:25.596Z,77.33
2018-07-13T23:51:54.650Z,74.07
2018-07-13T23:54:23.715Z,74.86
2018-07-13T23:56:52.836Z,73.94
2018-07-13T23:59:21.859Z,73.22
